Time;durP1;ratioP1;P1;durP2;ratioP2;P2;SDS_P1;SDS_P2;PMS_P1;PMS_P2;Temp;Humidity;BMP_temperature;BMP_pressure;BME280_temperature;BME280_humidity;BME280_pressure;Samples;Min_cycle;Max_cycle;Signal;HPM_P1;HPM_P2
2022/09/10 00:00:57;;;;;;;2.40;1.30;;;17.80;81.90;;;;;;5090584;28;20433;-67
2022/09/10 00:03:23;;;;;;;1.08;0.98;;;17.80;81.90;;;;;;5088847;28;20078;-67
2022/09/10 00:05:49;;;;;;;1.45;1.00;;;17.80;81.80;;;;;;5087894;28;20020;-71
2022/09/10 00:08:16;;;;;;;3.08;0.80;;;17.80;81.90;;;;;;5077900;28;20016;-72
2022/09/10 00:10:45;;;;;;;0.68;0.60;;;17.80;82.00;;;;;;5074892;28;20074;-72
2022/09/10 00:13:12;;;;;;;1.83;1.00;;;17.70;81.90;;;;;;5086152;28;20032;-67
2022/09/10 00:15:40;;;;;;;8.23;1.10;;;17.80;81.90;;;;;;5083815;28;20082;-67
2022/09/10 00:18:07;;;;;;;1.65;0.65;;;17.80;82.00;;;;;;5075490;28;20071;-67
2022/09/10 00:20:54;;;;;;;4.05;1.25;;;17.80;82.00;;;;;;5083492;28;20063;-67
2022/09/10 00:23:23;;;;;;;2.03;1.08;;;17.80;82.10;;;;;;5076966;27;20041;-67
2022/09/10 00:25:52;;;;;;;1.38;0.93;;;17.80;82.20;;;;;;5073919;28;20090;-72
2022/09/10 00:28:18;;;;;;;1.67;0.80;;;17.80;82.30;;;;;;5090381;28;20438;-72
2022/09/10 00:30:46;;;;;;;2.47;1.08;;;17.80;82.20;;;;;;5087924;28;20023;-67
2022/09/10 00:33:13;;;;;;;2.08;1.10;;;17.80;82.20;;;;;;5094028;28;20032;-66
2022/09/10 00:35:39;;;;;;;2.65;1.40;;;17.80;82.30;;;;;;5094500;28;20102;-66
2022/09/10 00:38:06;;;;;;;1.23;0.98;;;17.80;82.20;;;;;;5070079;28;20127;-66
2022/09/10 00:40:32;;;;;;;2.55;1.67;;;17.80;82.20;;;;;;5081624;28;20097;-66
2022/09/10 00:42:58;;;;;;;5.18;1.58;;;17.70;82.20;;;;;;5092259;28;20112;-67
2022/09/10 00:45:27;;;;;;;1.55;1.23;;;17.70;82.30;;;;;;5088097;28;20035;-66
2022/09/10 00:47:58;;;;;;;2.33;1.25;;;17.70;82.40;;;;;;5076020;28;20018;-66
2022/09/10 00:50:34;;;;;;;2.05;1.20;;;17.80;82.30;;;;;;5089305;28;20103;-66
2022/09/10 00:53:04;;;;;;;1.98;1.65;;;17.80;82.30;;;;;;5075794;28;20391;-67
2022/09/10 00:55:33;;;;;;;1.90;1.30;;;17.80;82.30;;;;;;5078259;28;20028;-67
2022/09/10 00:58:02;;;;;;;2.30;1.33;;;17.80;82.30;;;;;;5083588;28;20076;-67
2022/09/10 01:00:27;;;;;;;2.15;1.40;;;17.80;82.30;;;;;;5069256;28;20093;-67
2022/09/10 01:02:54;;;;;;;0.80;0.80;;;17.80;82.30;;;;;;5090411;28;20040;-72
2022/09/10 01:05:20;;;;;;;2.40;1.30;;;17.80;82.30;;;;;;5093577;28;20547;-67
2022/09/10 01:07:47;;;;;;;1.85;1.30;;;17.80;82.40;;;;;;5078505;28;20029;-73
2022/09/10 01:10:20;;;;;;;3.35;2.28;;;17.80;82.30;;;;;;5073281;28;20071;-67
2022/09/10 01:13:07;;;;;;;2.25;1.38;;;17.80;82.40;;;;;;5078645;28;20024;-67
2022/09/10 01:15:45;;;;;;;4.28;1.70;;;17.80;82.50;;;;;;5076854;28;20453;-67
2022/09/10 01:18:13;;;;;;;4.90;2.05;;;17.70;82.50;;;;;;5082174;28;20533;-73
2022/09/10 01:20:55;;;;;;;4.60;1.92;;;17.60;82.60;;;;;;5083870;28;20036;-67
2022/09/10 01:23:38;;;;;;;4.07;2.57;;;17.60;82.70;;;;;;5083928;28;20036;-67
2022/09/10 01:26:27;;;;;;;16.65;3.22;;;17.60;82.70;;;;;;5084690;28;20548;-73
2022/09/10 01:29:10;;;;;;;2.88;2.05;;;17.60;82.90;;;;;;5083397;28;20042;-67
2022/09/10 01:31:47;;;;;;;4.15;2.45;;;17.60;83.00;;;;;;5087624;28;20029;-67
2022/09/10 01:34:40;;;;;;;3.80;2.13;;;17.60;83.10;;;;;;5081954;28;20127;-67
2022/09/10 01:37:12;;;;;;;3.05;1.98;;;17.70;83.00;;;;;;5086337;28;20038;-73
2022/09/10 01:39:39;;;;;;;3.03;2.25;;;17.70;82.80;;;;;;5096791;28;20040;-73
2022/09/10 01:42:05;;;;;;;4.05;2.47;;;17.70;82.80;;;;;;5091266;28;20422;-73
2022/09/10 01:44:46;;;;;;;3.88;2.45;;;17.70;82.70;;;;;;5090462;28;20035;-67
2022/09/10 01:47:44;;;;;;;2.55;2.35;;;17.80;82.60;;;;;;5089137;28;20095;-67
2022/09/10 01:50:20;;;;;;;3.30;2.28;;;17.80;82.60;;;;;;5083141;28;20046;-73
2022/09/10 01:53:07;;;;;;;3.08;2.33;;;17.80;82.70;;;;;;5094265;28;20023;-73
2022/09/10 01:55:59;;;;;;;6.22;3.17;;;17.80;82.60;;;;;;5087845;28;20039;-67
2022/09/10 01:58:25;;;;;;;3.60;2.67;;;17.80;82.70;;;;;;5078342;28;20036;-67
2022/09/10 02:01:13;;;;;;;4.97;2.92;;;17.80;82.70;;;;;;5089192;28;20036;-73
2022/09/10 02:03:43;;;;;;;3.85;2.60;;;17.80;82.60;;;;;;5079900;28;20036;-73
2022/09/10 02:06:13;;;;;;;2.92;2.40;;;17.80;82.80;;;;;;5077396;28;20035;-73
2022/09/10 02:08:42;;;;;;;3.50;2.50;;;17.80;82.80;;;;;;5089471;28;20012;-73
2022/09/10 02:11:13;;;;;;;3.45;2.58;;;17.80;82.80;;;;;;5090013;28;20028;-73
2022/09/10 02:13:41;;;;;;;3.55;2.92;;;17.80;82.70;;;;;;5090381;28;20510;-73
2022/09/10 02:16:11;;;;;;;3.78;2.53;;;17.80;82.60;;;;;;5089971;28;20039;-73
2022/09/10 02:18:38;;;;;;;2.80;1.90;;;17.90;82.60;;;;;;5089053;28;20104;-73
2022/09/10 02:21:05;;;;;;;3.72;2.72;;;17.90;82.60;;;;;;5080789;28;20024;-73
2022/09/10 02:23:47;;;;;;;4.05;3.17;;;17.90;82.60;;;;;;5089064;28;20475;-72
2022/09/10 02:26:13;;;;;;;6.70;2.97;;;17.80;82.60;;;;;;5078117;28;20379;-67
2022/09/10 02:28:42;;;;;;;6.03;2.97;;;17.80;82.70;;;;;;5089798;28;20031;-67
2022/09/10 02:31:08;;;;;;;3.45;2.22;;;17.80;82.80;;;;;;5087847;28;20143;-67
2022/09/10 02:33:34;;;;;;;5.60;2.45;;;17.80;82.80;;;;;;5072122;28;20487;-67
2022/09/10 02:36:01;;;;;;;5.85;2.83;;;17.80;82.90;;;;;;5070729;28;20126;-72
2022/09/10 02:38:28;;;;;;;4.70;3.38;;;17.80;82.90;;;;;;5097786;28;20174;-73
2022/09/10 02:40:55;;;;;;;3.85;3.17;;;17.80;82.90;;;;;;5088551;28;20118;-66
2022/09/10 02:43:21;;;;;;;3.50;2.38;;;17.80;83.00;;;;;;5104836;28;20626;-72
2022/09/10 02:45:46;;;;;;;3.28;2.28;;;17.80;83.10;;;;;;5094072;28;20071;-66
2022/09/10 02:48:12;;;;;;;5.43;3.70;;;17.70;83.00;;;;;;5092337;28;20031;-67
2022/09/10 02:50:39;;;;;;;3.17;2.53;;;17.80;83.70;;;;;;5091972;28;20032;-67
2022/09/10 02:53:05;;;;;;;4.50;2.80;;;17.80;83.00;;;;;;5101693;28;20035;-72
2022/09/10 02:55:31;;;;;;;5.50;3.10;;;17.80;83.00;;;;;;5094856;28;20043;-72
2022/09/10 02:57:57;;;;;;;2.60;2.22;;;17.70;83.10;;;;;;5092483;28;20040;-73
2022/09/10 03:00:23;;;;;;;6.43;3.45;;;17.70;83.20;;;;;;5090849;28;20056;-67
2022/09/10 03:02:49;;;;;;;6.18;2.78;;;17.80;83.40;;;;;;5092915;28;20040;-67
2022/09/10 03:05:15;;;;;;;2.45;2.17;;;17.80;83.30;;;;;;5073946;28;20031;-67
2022/09/10 03:07:42;;;;;;;3.13;2.25;;;17.80;83.10;;;;;;5096080;28;20133;-67
2022/09/10 03:10:09;;;;;;;4.65;2.38;;;17.80;83.20;;;;;;5095650;28;20569;-67
2022/09/10 03:12:35;;;;;;;3.88;3.10;;;17.80;83.20;;;;;;5103343;28;20058;-66
2022/09/10 03:15:01;;;;;;;6.40;3.17;;;17.80;83.20;;;;;;5094562;28;20032;-72
2022/09/10 03:17:27;;;;;;;5.15;3.05;;;17.70;83.20;;;;;;5097984;28;20043;-67
2022/09/10 03:19:52;;;;;;;4.20;2.85;;;17.80;83.30;;;;;;5091824;28;20028;-67
2022/09/10 03:22:18;;;;;;;4.55;3.13;;;17.80;83.20;;;;;;5096553;28;20040;-73
2022/09/10 03:24:46;;;;;;;5.57;2.70;;;17.80;83.30;;;;;;5092869;28;20082;-72
2022/09/10 03:27:14;;;;;;;6.85;3.13;;;17.80;83.40;;;;;;5094079;28;20115;-67
2022/09/10 03:29:40;;;;;;;3.40;2.78;;;17.80;83.30;;;;;;5084045;28;20028;-73
2022/09/10 03:32:07;;;;;;;3.58;2.55;;;17.80;83.30;;;;;;5096575;28;20060;-72
2022/09/10 03:34:33;;;;;;;4.55;3.17;;;17.80;83.20;;;;;;5093050;28;20020;-73
2022/09/10 03:36:58;;;;;;;6.13;2.35;;;17.90;83.20;;;;;;5073503;28;20036;-73
2022/09/10 03:39:24;;;;;;;4.80;3.05;;;17.90;83.20;;;;;;5103289;28;20387;-73
2022/09/10 03:41:50;;;;;;;3.92;2.53;;;17.90;83.20;;;;;;5092590;28;20020;-73
2022/09/10 03:44:16;;;;;;;4.38;3.13;;;17.90;83.20;;;;;;5097964;28;20032;-73
2022/09/10 03:46:42;;;;;;;3.67;2.92;;;17.90;83.20;;;;;;5065083;28;20032;-73
2022/09/10 03:49:08;;;;;;;3.80;2.75;;;17.90;83.20;;;;;;5082540;28;20116;-73
2022/09/10 03:51:34;;;;;;;6.68;2.95;;;17.90;83.30;;;;;;5076422;28;20499;-73
2022/09/10 03:54:00;;;;;;;4.75;2.95;;;17.90;83.30;;;;;;5074805;28;20042;-73
2022/09/10 03:56:26;;;;;;;4.97;3.35;;;17.80;83.40;;;;;;5082736;28;20039;-73
2022/09/10 03:58:52;;;;;;;4.93;2.67;;;17.90;83.40;;;;;;5082702;28;20044;-73
2022/09/10 04:01:18;;;;;;;2.60;2.40;;;17.80;83.30;;;;;;5070488;28;20032;-67
2022/09/10 04:03:45;;;;;;;4.07;2.78;;;17.80;83.40;;;;;;5072133;28;20036;-73
2022/09/10 04:06:13;;;;;;;4.82;3.08;;;17.80;83.40;;;;;;5074451;28;20016;-73
2022/09/10 04:08:39;;;;;;;7.75;4.00;;;17.80;83.30;;;;;;5081726;28;20020;-73
2022/09/10 04:11:05;;;;;;;4.72;3.20;;;17.80;83.30;;;;;;5071518;28;20128;-73
2022/09/10 04:13:31;;;;;;;4.85;3.22;;;17.80;83.40;;;;;;5075706;28;20483;-73
2022/09/10 04:15:59;;;;;;;7.35;2.95;;;17.80;83.40;;;;;;5080423;28;20020;-74
2022/09/10 04:18:26;;;;;;;4.38;1.77;;;17.80;83.50;;;;;;5084063;28;20036;-74
2022/09/10 04:20:53;;;;;;;4.32;3.40;;;17.80;83.50;;;;;;5091318;28;20463;-73
2022/09/10 04:23:19;;;;;;;6.90;3.15;;;17.80;83.50;;;;;;5092043;28;20032;-68
2022/09/10 04:25:45;;;;;;;4.35;2.95;;;17.90;83.50;;;;;;5092917;28;20030;-73
2022/09/10 04:28:11;;;;;;;6.15;3.03;;;17.90;83.40;;;;;;5106355;28;20028;-73
2022/09/10 04:30:39;;;;;;;4.10;2.83;;;17.90;83.40;;;;;;5080037;28;20055;-73
2022/09/10 04:33:05;;;;;;;5.72;3.47;;;17.90;83.50;;;;;;5070514;28;20476;-73
2022/09/10 04:35:31;;;;;;;4.25;3.05;;;17.90;83.50;;;;;;5086201;28;20027;-72
2022/09/10 04:37:56;;;;;;;3.40;2.38;;;17.90;83.50;;;;;;5078871;28;20027;-73
2022/09/10 04:40:22;;;;;;;3.80;2.45;;;17.90;83.60;;;;;;5090939;28;20060;-73
2022/09/10 04:42:48;;;;;;;6.85;2.55;;;17.90;83.50;;;;;;5094764;28;20040;-73
2022/09/10 04:45:14;;;;;;;3.78;2.10;;;17.90;83.50;;;;;;5091435;28;20016;-72
2022/09/10 04:47:39;;;;;;;2.05;1.85;;;17.90;83.50;;;;;;5091657;28;20111;-73
2022/09/10 04:50:06;;;;;;;4.60;2.75;;;17.90;83.60;;;;;;5084514;28;20024;-67
2022/09/10 04:52:32;;;;;;;4.20;1.75;;;17.90;83.60;;;;;;5080410;28;20425;-67
2022/09/10 04:54:58;;;;;;;3.97;2.80;;;17.90;83.60;;;;;;5097501;28;20036;-67
2022/09/10 04:57:24;;;;;;;6.80;2.90;;;17.90;83.60;;;;;;5090351;28;20394;-66
2022/09/10 04:59:52;;;;;;;3.63;2.22;;;17.90;83.70;;;;;;5089654;28;20052;-66
2022/09/10 05:02:18;;;;;;;3.00;2.38;;;17.90;83.60;;;;;;5091262;28;20395;-66
2022/09/10 05:04:44;;;;;;;4.45;2.60;;;17.90;83.60;;;;;;5092832;28;20028;-72
2022/09/10 05:07:09;;;;;;;4.57;2.20;;;17.90;83.70;;;;;;5088152;28;20173;-72
2022/09/10 05:09:35;;;;;;;2.55;2.10;;;17.90;83.80;;;;;;5070460;28;20082;-73
2022/09/10 05:12:01;;;;;;;3.75;2.03;;;17.90;83.70;;;;;;5090956;28;20409;-67
2022/09/10 05:14:28;;;;;;;4.85;2.45;;;17.90;83.70;;;;;;5090250;28;20024;-67
2022/09/10 05:16:54;;;;;;;1.92;1.80;;;17.90;83.80;;;;;;5080942;28;20029;-67
2022/09/10 05:19:20;;;;;;;2.40;1.52;;;17.90;83.90;;;;;;5100536;28;20562;-66
2022/09/10 05:21:49;;;;;;;2.15;1.88;;;17.90;83.80;;;;;;5062969;28;20379;-66
2022/09/10 05:24:15;;;;;;;2.60;2.13;;;17.90;83.70;;;;;;5091055;28;20020;-66
2022/09/10 05:26:42;;;;;;;1.52;1.42;;;17.90;83.90;;;;;;5083628;28;20124;-67
2022/09/10 05:29:08;;;;;;;2.35;1.73;;;17.90;83.90;;;;;;5080218;28;20024;-67
2022/09/10 05:31:35;;;;;;;2.08;1.80;;;17.90;83.90;;;;;;5090063;28;20514;-66
2022/09/10 05:34:01;;;;;;;3.83;2.00;;;17.90;83.90;;;;;;5076256;28;20024;-66
2022/09/10 05:36:27;;;;;;;8.60;2.28;;;18.00;83.90;;;;;;5083142;28;20020;-66
2022/09/10 05:38:56;;;;;;;3.03;2.10;;;18.00;83.90;;;;;;5090985;28;20070;-67
2022/09/10 05:41:22;;;;;;;2.28;2.00;;;18.00;83.80;;;;;;5090439;28;20063;-67
2022/09/10 05:43:48;;;;;;;2.35;2.08;;;18.00;83.80;;;;;;5090639;28;20451;-72
2022/09/10 05:46:14;;;;;;;2.55;1.70;;;18.00;83.70;;;;;;5087445;28;20110;-72
2022/09/10 05:48:40;;;;;;;2.88;1.83;;;18.10;83.80;;;;;;5072329;28;20016;-73
2022/09/10 05:51:06;;;;;;;2.13;1.95;;;18.10;83.80;;;;;;5089494;28;20497;-73
2022/09/10 05:53:32;;;;;;;2.38;1.50;;;18.10;83.90;;;;;;5090457;28;20111;-66
2022/09/10 05:55:58;;;;;;;3.20;1.48;;;18.10;83.80;;;;;;5088913;28;20052;-72
2022/09/10 05:58:26;;;;;;;25.27;2.67;;;18.10;83.70;;;;;;5090189;28;20077;-72
2022/09/10 06:00:57;;;;;;;2.38;1.90;;;18.20;83.80;;;;;;5084412;28;20044;-66
2022/09/10 06:03:23;;;;;;;1.48;1.38;;;18.20;83.60;;;;;;5073553;28;20036;-66
2022/09/10 06:05:52;;;;;;;2.15;1.70;;;18.20;83.50;;;;;;5083737;28;20115;-72
2022/09/10 06:08:22;;;;;;;2.38;1.95;;;18.20;83.60;;;;;;5083367;28;20025;-72
2022/09/10 06:10:59;;;;;;;2.08;1.83;;;18.20;83.50;;;;;;5086116;28;20216;-71
2022/09/10 06:13:25;;;;;;;3.47;2.13;;;18.20;83.50;;;;;;5081017;28;20487;-66
2022/09/10 06:15:51;;;;;;;5.10;1.40;;;18.20;83.60;;;;;;5080917;28;20025;-67
2022/09/10 06:18:18;;;;;;;2.33;1.50;;;18.20;83.50;;;;;;5083698;28;20031;-66
2022/09/10 06:20:43;;;;;;;2.58;2.08;;;18.20;83.60;;;;;;5082990;28;20032;-66
2022/09/10 06:23:10;;;;;;;2.42;2.10;;;18.20;83.80;;;;;;5078529;28;20020;-66
2022/09/10 06:25:36;;;;;;;1.80;1.35;;;18.20;83.80;;;;;;5083513;28;20418;-66
2022/09/10 06:28:02;;;;;;;2.28;1.92;;;18.20;83.90;;;;;;5079597;28;20024;-66
2022/09/10 06:30:27;;;;;;;2.90;2.38;;;18.10;83.90;;;;;;5078753;28;20104;-72
2022/09/10 06:32:53;;;;;;;3.00;1.55;;;18.10;84.00;;;;;;5080470;28;20060;-66
2022/09/10 06:35:20;;;;;;;2.25;1.92;;;18.10;84.00;;;;;;5077261;28;20131;-66
2022/09/10 06:37:46;;;;;;;2.25;2.00;;;18.10;84.10;;;;;;5081010;28;20360;-66
2022/09/10 06:40:12;;;;;;;1.63;1.38;;;18.10;84.30;;;;;;5073446;28;20035;-66
2022/09/10 06:42:37;;;;;;;2.22;1.50;;;18.10;84.30;;;;;;5082107;28;20025;-66
2022/09/10 06:45:04;;;;;;;2.35;1.77;;;18.00;84.40;;;;;;5072354;28;20438;-66
2022/09/10 06:47:30;;;;;;;2.20;2.00;;;18.00;84.60;;;;;;5066193;28;20070;-66
2022/09/10 06:49:55;;;;;;;1.95;1.40;;;18.00;84.70;;;;;;5080346;28;20024;-65
2022/09/10 06:52:21;;;;;;;3.83;1.65;;;17.90;84.70;;;;;;5060773;28;20115;-66
2022/09/10 06:54:47;;;;;;;1.40;1.15;;;17.90;84.90;;;;;;5079442;28;20051;-66
2022/09/10 06:57:12;;;;;;;4.18;1.50;;;17.90;85.00;;;;;;5086294;28;20028;-73
2022/09/10 06:59:38;;;;;;;2.45;1.70;;;17.90;85.20;;;;;;5082848;28;20142;-67
2022/09/10 07:02:04;;;;;;;2.35;1.48;;;17.80;85.20;;;;;;5080998;28;20036;-66
2022/09/10 07:04:30;;;;;;;2.03;1.75;;;17.80;85.30;;;;;;5074737;28;20506;-67
2022/09/10 07:06:56;;;;;;;2.33;1.63;;;17.80;85.30;;;;;;5083618;28;20042;-67
2022/09/10 07:09:22;;;;;;;2.00;1.80;;;17.70;85.40;;;;;;5079943;28;20035;-72
2022/09/10 07:11:47;;;;;;;2.33;1.52;;;17.70;85.60;;;;;;5070096;28;20029;-66
2022/09/10 07:14:13;;;;;;;2.28;1.77;;;17.70;85.70;;;;;;5085950;28;20036;-67
2022/09/10 07:16:43;;;;;;;3.33;1.73;;;17.70;85.70;;;;;;5081569;28;20029;-67
2022/09/10 07:19:12;;;;;;;3.72;2.00;;;17.70;85.60;;;;;;5076101;28;20503;-67
2022/09/10 07:21:38;;;;;;;3.33;2.30;;;17.70;85.40;;;;;;5079679;28;20032;-67
2022/09/10 07:24:04;;;;;;;3.80;2.55;;;17.70;85.50;;;;;;5072427;28;20128;-67
2022/09/10 07:26:30;;;;;;;2.30;1.95;;;17.70;86.20;;;;;;5079084;28;20025;-67
2022/09/10 07:28:57;;;;;;;2.17;1.98;;;17.70;85.70;;;;;;5091087;28;20028;-67
2022/09/10 07:31:26;;;;;;;2.92;2.28;;;17.70;85.60;;;;;;5090481;28;20520;-67
2022/09/10 07:33:54;;;;;;;2.42;2.22;;;17.70;85.70;;;;;;5088196;28;20048;-68
2022/09/10 07:36:20;;;;;;;2.70;2.13;;;17.80;85.70;;;;;;5078495;28;20058;-67
2022/09/10 07:38:47;;;;;;;5.03;2.35;;;17.80;85.60;;;;;;5085413;28;20110;-67
2022/09/10 07:41:14;;;;;;;3.72;2.72;;;17.80;85.50;;;;;;5085951;28;20064;-68
2022/09/10 07:43:41;;;;;;;6.60;2.90;;;17.90;85.50;;;;;;5091785;28;20483;-67
2022/09/10 07:46:12;;;;;;;4.45;2.83;;;17.90;85.50;;;;;;5078302;28;20115;-67
2022/09/10 07:48:39;;;;;;;3.85;2.63;;;17.90;85.50;;;;;;5081414;28;20111;-68
2022/09/10 07:51:06;;;;;;;4.15;2.40;;;17.90;85.40;;;;;;5087978;28;20055;-67
2022/09/10 07:53:32;;;;;;;4.30;2.30;;;18.00;85.40;;;;;;5084297;28;20031;-67
2022/09/10 07:56:03;;;;;;;3.60;1.48;;;18.00;85.30;;;;;;5100446;28;20032;-65
2022/09/10 07:58:30;;;;;;;3.88;2.30;;;18.00;85.20;;;;;;5086899;28;20032;-66
2022/09/10 08:00:58;;;;;;;6.18;2.42;;;18.10;85.10;;;;;;5090313;28;20412;-66
2022/09/10 08:03:25;;;;;;;6.65;3.25;;;18.10;85.20;;;;;;5090786;28;20111;-74
2022/09/10 08:05:51;;;;;;;2.75;2.55;;;18.10;85.10;;;;;;5061017;28;20441;-72
2022/09/10 08:08:18;;;;;;;2.58;1.88;;;18.10;85.10;;;;;;5079401;28;20040;-71
2022/09/10 08:10:45;;;;;;;3.28;1.98;;;18.10;85.00;;;;;;5084555;28;20047;-72
2022/09/10 08:13:11;;;;;;;1.17;1.08;;;18.20;85.00;;;;;;5090440;28;20024;-72
2022/09/10 08:15:43;;;;;;;2.08;1.10;;;18.20;85.00;;;;;;5073828;28;20043;-72
2022/09/10 08:18:16;;;;;;;;;;;18.10;85.00;;;;;;5090710;28;20467;-66
2022/09/10 08:20:41;;;;;;;7.10;1.05;;;18.10;85.30;;;;;;5078900;28;19915;-67
2022/09/10 08:23:07;;;;;;;3.08;0.90;;;18.00;85.40;;;;;;5078454;28;20037;-67
2022/09/10 08:25:33;;;;;;;1.20;0.75;;;18.00;85.40;;;;;;5085732;28;20032;-67
2022/09/10 08:27:59;;;;;;;1.42;0.82;;;18.00;85.40;;;;;;5075521;28;20119;-73
2022/09/10 08:30:26;;;;;;;1.40;1.20;;;18.00;85.50;;;;;;5078542;28;20379;-66
2022/09/10 08:32:53;;;;;;;1.08;0.98;;;18.00;85.50;;;;;;5079312;28;20135;-66
2022/09/10 08:35:19;;;;;;;0.88;0.80;;;18.00;85.40;;;;;;5086177;28;20032;-66
2022/09/10 08:37:45;;;;;;;0.98;0.88;;;18.00;85.30;;;;;;5066077;28;20165;-67
2022/09/10 08:40:13;;;;;;;2.53;1.40;;;18.10;85.30;;;;;;5080433;28;20118;-67
2022/09/10 08:42:47;;;;;;;0.90;0.82;;;18.10;85.20;;;;;;5085078;28;20383;-68
2022/09/10 08:45:18;;;;;;;2.25;0.93;;;18.10;85.10;;;;;;5081516;28;20380;-68
2022/09/10 08:47:58;;;;;;;0.80;0.80;;;18.10;85.10;;;;;;5088403;28;20031;-68
2022/09/10 08:50:34;;;;;;;1.08;1.02;;;18.10;85.10;;;;;;5076830;28;20472;-68
2022/09/10 08:53:40;;;;;;;1.30;0.90;;;18.10;85.10;;;;;;5087126;28;20439;-68
2022/09/10 08:56:14;;;;;;;1.33;1.00;;;18.10;85.00;;;;;;5085517;28;20032;-66
2022/09/10 08:58:49;;;;;;;0.60;0.60;;;18.10;85.10;;;;;;5072721;28;20043;-66
2022/09/10 09:01:29;;;;;;;1.05;0.90;;;18.10;85.10;;;;;;5077920;28;20024;-67
2022/09/10 09:03:56;;;;;;;1.23;1.10;;;18.20;85.10;;;;;;5076440;28;20467;-72
2022/09/10 09:06:29;;;;;;;0.80;0.70;;;18.20;85.10;;;;;;5085972;28;20053;-68
2022/09/10 09:08:55;;;;;;;0.93;0.93;;;18.20;85.00;;;;;;5087021;28;20043;-67
2022/09/10 09:11:38;;;;;;;0.77;0.77;;;18.20;85.00;;;;;;5076635;28;20031;-68
2022/09/10 09:14:21;;;;;;;2.28;1.00;;;18.20;85.00;;;;;;5077851;28;20043;-68
2022/09/10 09:17:04;;;;;;;1.15;0.93;;;18.20;85.20;;;;;;5091206;28;20032;-66
2022/09/10 09:20:03;;;;;;;0.90;0.90;;;18.20;85.20;;;;;;5084127;28;20084;-66
2022/09/10 09:22:52;;;;;;;0.52;0.50;;;18.30;85.20;;;;;;5088391;28;20031;-70
2022/09/10 09:25:30;;;;;;;0.57;0.57;;;18.20;85.20;;;;;;5078053;28;20040;-72
2022/09/10 09:27:57;;;;;;;0.70;0.70;;;18.20;85.20;;;;;;5078677;28;20682;-72
2022/09/10 09:30:24;;;;;;;1.00;0.70;;;18.20;85.30;;;;;;5079719;28;20032;-73
2022/09/10 09:33:02;;;;;;;0.60;0.60;;;18.30;85.30;;;;;;5075879;28;20045;-67
2022/09/10 09:35:35;;;;;;;0.88;0.63;;;18.30;85.20;;;;;;5081163;28;20089;-67
2022/09/10 09:38:23;;;;;;;0.70;0.60;;;18.30;85.20;;;;;;5086917;28;20028;-72
2022/09/10 09:40:57;;;;;;;0.63;0.63;;;18.40;85.00;;;;;;5074232;28;20486;-73
2022/09/10 09:43:53;;;;;;;0.60;0.60;;;18.40;85.00;;;;;;5079846;28;20310;-72
2022/09/10 09:46:20;;;;;;;0.75;0.60;;;18.40;85.50;;;;;;5077841;28;20070;-72
2022/09/10 09:48:47;;;;;;;0.68;0.50;;;18.40;84.90;;;;;;5085297;28;20023;-66
2022/09/10 09:51:20;;;;;;;0.73;0.55;;;18.50;84.80;;;;;;5084945;28;20475;-74
2022/09/10 09:53:50;;;;;;;0.65;0.65;;;18.50;84.70;;;;;;5081586;28;20464;-70
2022/09/10 09:56:24;;;;;;;0.50;0.50;;;18.50;84.70;;;;;;5081272;28;20064;-67
2022/09/10 09:58:51;;;;;;;0.98;0.60;;;18.60;84.60;;;;;;5080120;28;20387;-67
2022/09/10 10:01:20;;;;;;;0.70;0.70;;;18.60;84.60;;;;;;5073838;28;20039;-74
2022/09/10 10:03:51;;;;;;;0.98;0.73;;;18.60;84.50;;;;;;5079755;28;20020;-73
2022/09/10 10:06:23;;;;;;;0.40;0.40;;;18.60;84.50;;;;;;5075532;28;20107;-74
2022/09/10 10:08:58;;;;;;;0.57;0.57;;;18.60;84.50;;;;;;5080474;28;20367;-67
2022/09/10 10:11:44;;;;;;;0.65;0.60;;;18.70;84.60;;;;;;5079908;28;20035;-68
2022/09/10 10:14:21;;;;;;;0.47;0.47;;;18.60;84.60;;;;;;5089377;28;20357;-68
2022/09/10 10:16:50;;;;;;;0.50;0.50;;;18.60;84.80;;;;;;5089885;28;20424;-66
2022/09/10 10:19:37;;;;;;;0.63;0.57;;;18.70;84.80;;;;;;5074948;28;20537;-66
2022/09/10 10:22:18;;;;;;;0.68;0.52;;;18.60;84.60;;;;;;5079753;28;20515;-68
2022/09/10 10:24:46;;;;;;;0.43;0.43;;;18.60;84.70;;;;;;5077415;28;20061;-71
2022/09/10 10:27:26;;;;;;;1.15;0.47;;;18.60;84.70;;;;;;5080306;28;20044;-72
2022/09/10 10:30:15;;;;;;;0.52;0.52;;;18.70;84.60;;;;;;5085152;28;20032;-72
2022/09/10 10:33:00;;;;;;;0.75;0.50;;;18.80;84.30;;;;;;5076470;28;20029;-73
2022/09/10 10:35:32;;;;;;;0.93;0.90;;;18.90;84.30;;;;;;5086881;28;20020;-71
2022/09/10 10:38:16;;;;;;;0.75;0.50;;;19.10;84.20;;;;;;5086660;28;20476;-71
2022/09/10 10:41:10;;;;;;;0.70;0.70;;;19.10;84.10;;;;;;5089528;28;20036;-71
2022/09/10 10:43:53;;;;;;;0.52;0.52;;;19.30;84.00;;;;;;5070779;28;20032;-71
2022/09/10 10:46:26;;;;;;;0.60;0.60;;;19.40;83.90;;;;;;5082406;28;20032;-73
2022/09/10 10:49:15;;;;;;;1.95;0.95;;;19.50;83.90;;;;;;5079369;28;20027;-74
2022/09/10 10:52:23;;;;;;;1.05;0.88;;;19.80;83.70;;;;;;5085086;28;20371;-72
2022/09/10 10:55:12;;;;;;;0.95;0.90;;;20.30;83.20;;;;;;5050596;28;20089;-71
2022/09/10 10:58:04;;;;;;;0.88;0.85;;;20.80;82.70;;;;;;5077288;28;20039;-71
2022/09/10 11:00:40;;;;;;;2.40;1.00;;;21.30;81.90;;;;;;5088199;28;20055;-72
2022/09/10 11:03:26;;;;;;;1.02;0.80;;;21.70;80.80;;;;;;5091896;28;20019;-71
2022/09/10 11:06:10;;;;;;;2.15;1.73;;;21.80;80.20;;;;;;5092436;28;20024;-71
2022/09/10 11:08:58;;;;;;;1.48;1.17;;;21.80;80.00;;;;;;5083891;28;20016;-71
2022/09/10 11:11:43;;;;;;;1.83;1.13;;;21.60;79.80;;;;;;5077538;28;20507;-72
2022/09/10 11:14:15;;;;;;;1.15;1.05;;;21.30;80.30;;;;;;5086411;28;20097;-71
2022/09/10 11:17:04;;;;;;;0.93;0.80;;;21.00;80.60;;;;;;5080046;28;20016;-72
2022/09/10 11:19:40;;;;;;;3.78;1.20;;;20.70;81.20;;;;;;5086341;28;20048;-72
2022/09/10 11:22:24;;;;;;;0.77;0.77;;;20.50;81.30;;;;;;5073004;28;20483;-72
2022/09/10 11:25:12;;;;;;;1.98;1.25;;;20.50;81.70;;;;;;5078998;28;20036;-72
2022/09/10 11:27:45;;;;;;;1.38;1.27;;;20.30;81.70;;;;;;5079238;28;20081;-72
2022/09/10 11:30:12;;;;;;;;;;;20.20;82.00;;;;;;5078278;28;20036;-72
2022/09/10 11:32:41;;;;;;;1.65;1.42;;;20.20;82.40;;;;;;5081785;28;19908;-72
2022/09/10 11:35:44;;;;;;;3.15;1.40;;;20.20;82.70;;;;;;5076202;28;20103;-73
2022/09/10 11:38:48;;;;;;;;;;;20.40;82.90;;;;;;5093669;28;20033;-73
2022/09/10 11:41:21;;;;;;;1.55;1.00;;;20.60;82.80;;;;;;5020697;28;19947;-72
2022/09/10 11:43:47;;;;;;;0.90;0.90;;;20.60;82.30;;;;;;5019806;28;20104;-73
2022/09/10 11:46:22;;;;;;;1.13;0.88;;;20.70;82.00;;;;;;5044854;28;20541;-72
2022/09/10 11:49:02;;;;;;;1.80;0.90;;;20.80;81.90;;;;;;5099343;28;20487;-73
2022/09/10 11:51:32;;;;;;;1.10;0.90;;;21.00;81.80;;;;;;5079870;28;20080;-73
2022/09/10 11:54:01;;;;;;;0.60;0.60;;;21.30;81.00;;;;;;5077463;28;20036;-73
2022/09/10 11:56:38;;;;;;;2.17;0.80;;;21.50;80.00;;;;;;5075056;28;20048;-74
2022/09/10 11:59:19;;;;;;;0.90;0.90;;;21.60;79.50;;;;;;5071152;28;20480;-71
2022/09/10 12:01:50;;;;;;;1.15;0.98;;;21.50;79.30;;;;;;5079902;28;20042;-71
2022/09/10 12:04:35;;;;;;;0.90;0.88;;;21.40;79.50;;;;;;5080565;28;20032;-71
2022/09/10 12:07:39;;;;;;;0.75;0.60;;;21.30;79.80;;;;;;5080234;28;20077;-72
2022/09/10 12:11:04;;;;;;;0.60;0.60;;;21.10;80.20;;;;;;5078760;28;20038;-72
2022/09/10 12:13:33;;;;;;;1.38;0.93;;;21.00;80.70;;;;;;5014437;28;20489;-70
2022/09/10 12:16:07;;;;;;;0.60;0.60;;;21.00;81.00;;;;;;5061565;28;20795;-70
2022/09/10 12:18:42;;;;;;;0.98;0.85;;;21.10;80.90;;;;;;5087375;28;20028;-71
2022/09/10 12:21:15;;;;;;;1.45;1.10;;;21.40;80.80;;;;;;5080208;28;20047;-71
2022/09/10 12:23:42;;;;;;;0.85;0.75;;;21.60;80.50;;;;;;5101912;28;20020;-71
2022/09/10 12:26:16;;;;;;;0.80;0.80;;;21.90;80.10;;;;;;5076040;28;20024;-70
2022/09/10 12:28:41;;;;;;;0.77;0.77;;;22.20;79.70;;;;;;5082966;28;20479;-71
2022/09/10 12:31:15;;;;;;;0.82;0.60;;;22.40;79.00;;;;;;5083616;28;20089;-70
2022/09/10 12:33:44;;;;;;;0.73;0.73;;;22.60;78.70;;;;;;5077873;28;20390;-71
2022/09/10 12:36:33;;;;;;;0.77;0.70;;;23.00;78.40;;;;;;5084304;28;20120;-71
2022/09/10 12:39:18;;;;;;;0.90;0.90;;;23.40;77.40;;;;;;5083450;28;20111;-72
2022/09/10 12:41:44;;;;;;;0.80;0.80;;;23.70;76.50;;;;;;5090693;28;20024;-72
2022/09/10 12:44:35;;;;;;;1.10;1.00;;;23.60;75.80;;;;;;5097535;28;20035;-72
2022/09/10 12:47:12;;;;;;;1.30;0.93;;;23.40;76.30;;;;;;5079453;28;20052;-73
2022/09/10 12:49:50;;;;;;;1.17;1.08;;;23.10;76.70;;;;;;5086238;28;20372;-73
2022/09/10 12:52:25;;;;;;;1.38;1.20;;;22.80;77.20;;;;;;5085037;28;20027;-73
2022/09/10 12:55:30;;;;;;;1.08;0.98;;;22.50;77.70;;;;;;5093317;28;20020;-73
2022/09/10 12:58:15;;;;;;;2.30;1.17;;;22.50;78.30;;;;;;5087478;28;20036;-70
2022/09/10 13:00:53;;;;;;;1.63;1.33;;;22.70;78.30;;;;;;5081531;28;20380;-72
2022/09/10 13:03:20;;;;;;;1.08;1.08;;;23.20;77.40;;;;;;5103384;28;20036;-71
2022/09/10 13:05:52;;;;;;;0.98;0.98;;;23.70;76.50;;;;;;5090646;28;20439;-70
2022/09/10 13:08:41;;;;;;;1.10;0.70;;;24.10;75.70;;;;;;5106673;28;20537;-70
2022/09/10 13:11:07;;;;;;;1.38;1.23;;;24.50;74.30;;;;;;5077560;28;20020;-74